sensor_id;sensor_type;location;lat;lon;timestamp;P1;durP1;ratioP1;P2;durP2;ratioP2
1879;SDS011;49285;49.002;8.390;2024-01-16T00:01:20;15.33;;;7.17;;
1879;SDS011;49285;49.002;8.390;2024-01-16T00:03:45;11.00;;;6.90;;
1879;SDS011;49285;49.002;8.390;2024-01-16T00:06:11;11.93;;;7.60;;
1879;SDS011;49285;49.002;8.390;2024-01-16T00:08:37;12.93;;;7.13;;
1879;SDS011;49285;49.002;8.390;2024-01-16T00:11:02;12.67;;;7.10;;
1879;SDS011;49285;49.002;8.390;2024-01-16T00:13:28;11.20;;;6.17;;
1879;SDS011;49285;49.002;8.390;2024-01-16T00:15:54;8.57;;;5.20;;
1879;SDS011;49285;49.002;8.390;2024-01-16T00:18:21;12.97;;;5.23;;
1879;SDS011;49285;49.002;8.390;2024-01-16T00:20:47;10.93;;;6.63;;
1879;SDS011;49285;49.002;8.390;2024-01-16T00:23:13;14.10;;;5.93;;
1879;SDS011;49285;49.002;8.390;2024-01-16T00:25:38;6.97;;;4.23;;
1879;SDS011;49285;49.002;8.390;2024-01-16T00:28:04;13.70;;;6.80;;
1879;SDS011;49285;49.002;8.390;2024-01-16T00:30:30;9.60;;;6.60;;
1879;SDS011;49285;49.002;8.390;2024-01-16T00:32:55;12.17;;;6.40;;
1879;SDS011;49285;49.002;8.390;2024-01-16T00:35:21;7.57;;;5.13;;
1879;SDS011;49285;49.002;8.390;2024-01-16T00:37:46;10.00;;;6.00;;
1879;SDS011;49285;49.002;8.390;2024-01-16T00:40:12;10.60;;;6.43;;
1879;SDS011;49285;49.002;8.390;2024-01-16T00:42:38;11.70;;;6.23;;
1879;SDS011;49285;49.002;8.390;2024-01-16T00:45:04;9.90;;;5.83;;
1879;SDS011;49285;49.002;8.390;2024-01-16T00:47:30;8.40;;;5.27;;
1879;SDS011;49285;49.002;8.390;2024-01-16T00:49:55;10.50;;;7.10;;
1879;SDS011;49285;49.002;8.390;2024-01-16T00:52:21;9.80;;;5.83;;
1879;SDS011;49285;49.002;8.390;2024-01-16T00:54:46;12.67;;;5.50;;
1879;SDS011;49285;49.002;8.390;2024-01-16T00:57:12;12.00;;;6.87;;
1879;SDS011;49285;49.002;8.390;2024-01-16T00:59:40;10.30;;;5.67;;
1879;SDS011;49285;49.002;8.390;2024-01-16T01:02:06;9.70;;;6.20;;
1879;SDS011;49285;49.002;8.390;2024-01-16T01:04:32;10.17;;;6.40;;
1879;SDS011;49285;49.002;8.390;2024-01-16T01:06:58;12.03;;;6.00;;
1879;SDS011;49285;49.002;8.390;2024-01-16T01:09:24;7.80;;;4.67;;
1879;SDS011;49285;49.002;8.390;2024-01-16T01:11:50;7.80;;;5.80;;
1879;SDS011;49285;49.002;8.390;2024-01-16T01:14:15;9.13;;;5.63;;
1879;SDS011;49285;49.002;8.390;2024-01-16T01:16:41;9.30;;;5.57;;
1879;SDS011;49285;49.002;8.390;2024-01-16T01:19:07;9.53;;;5.53;;
1879;SDS011;49285;49.002;8.390;2024-01-16T01:21:32;7.30;;;5.10;;
1879;SDS011;49285;49.002;8.390;2024-01-16T01:23:58;9.03;;;5.90;;
1879;SDS011;49285;49.002;8.390;2024-01-16T01:26:23;8.93;;;4.73;;
1879;SDS011;49285;49.002;8.390;2024-01-16T01:28:49;11.50;;;6.47;;
1879;SDS011;49285;49.002;8.390;2024-01-16T01:31:14;9.63;;;5.77;;
1879;SDS011;49285;49.002;8.390;2024-01-16T01:33:40;12.53;;;5.30;;
1879;SDS011;49285;49.002;8.390;2024-01-16T01:36:05;8.33;;;5.93;;
1879;SDS011;49285;49.002;8.390;2024-01-16T01:38:31;9.63;;;6.10;;
1879;SDS011;49285;49.002;8.390;2024-01-16T01:40:57;8.30;;;5.40;;
1879;SDS011;49285;49.002;8.390;2024-01-16T01:43:23;12.20;;;5.97;;
1879;SDS011;49285;49.002;8.390;2024-01-16T01:46:31;10.83;;;6.00;;
1879;SDS011;49285;49.002;8.390;2024-01-16T01:48:45;10.10;;;5.60;;
1879;SDS011;49285;49.002;8.390;2024-01-16T01:51:17;8.90;;;6.07;;
1879;SDS011;49285;49.002;8.390;2024-01-16T01:53:44;10.03;;;5.53;;
1879;SDS011;49285;49.002;8.390;2024-01-16T01:56:12;9.00;;;5.50;;
1879;SDS011;49285;49.002;8.390;2024-01-16T01:58:41;9.40;;;6.00;;
1879;SDS011;49285;49.002;8.390;2024-01-16T02:01:09;13.47;;;5.93;;
1879;SDS011;49285;49.002;8.390;2024-01-16T02:03:39;12.40;;;6.63;;
1879;SDS011;49285;49.002;8.390;2024-01-16T02:06:07;10.70;;;7.20;;
1879;SDS011;49285;49.002;8.390;2024-01-16T02:08:33;8.23;;;6.20;;
1879;SDS011;49285;49.002;8.390;2024-01-16T02:10:58;10.07;;;5.97;;
1879;SDS011;49285;49.002;8.390;2024-01-16T02:13:24;9.13;;;5.67;;
1879;SDS011;49285;49.002;8.390;2024-01-16T02:15:50;10.07;;;5.70;;
1879;SDS011;49285;49.002;8.390;2024-01-16T02:18:16;9.13;;;6.10;;
1879;SDS011;49285;49.002;8.390;2024-01-16T02:20:42;10.50;;;6.43;;
1879;SDS011;49285;49.002;8.390;2024-01-16T02:23:08;9.33;;;5.93;;
1879;SDS011;49285;49.002;8.390;2024-01-16T02:25:37;9.73;;;5.63;;
1879;SDS011;49285;49.002;8.390;2024-01-16T02:28:04;7.80;;;5.60;;
1879;SDS011;49285;49.002;8.390;2024-01-16T02:30:29;7.80;;;5.40;;
1879;SDS011;49285;49.002;8.390;2024-01-16T02:32:55;7.93;;;5.20;;
1879;SDS011;49285;49.002;8.390;2024-01-16T02:35:21;7.27;;;4.93;;
1879;SDS011;49285;49.002;8.390;2024-01-16T02:37:47;10.57;;;5.70;;
1879;SDS011;49285;49.002;8.390;2024-01-16T02:40:12;9.17;;;5.23;;
1879;SDS011;49285;49.002;8.390;2024-01-16T02:42:38;8.50;;;6.17;;
1879;SDS011;49285;49.002;8.390;2024-01-16T02:45:04;10.57;;;5.97;;
1879;SDS011;49285;49.002;8.390;2024-01-16T02:47:30;9.83;;;6.37;;
1879;SDS011;49285;49.002;8.390;2024-01-16T02:49:56;7.80;;;5.33;;
1879;SDS011;49285;49.002;8.390;2024-01-16T02:52:22;10.93;;;6.60;;
1879;SDS011;49285;49.002;8.390;2024-01-16T02:54:48;8.93;;;5.40;;
1879;SDS011;49285;49.002;8.390;2024-01-16T02:57:14;8.53;;;5.77;;
1879;SDS011;49285;49.002;8.390;2024-01-16T02:59:39;9.83;;;5.73;;
1879;SDS011;49285;49.002;8.390;2024-01-16T03:02:05;8.40;;;5.30;;
1879;SDS011;49285;49.002;8.390;2024-01-16T03:04:30;9.17;;;5.77;;
1879;SDS011;49285;49.002;8.390;2024-01-16T03:06:56;14.47;;;6.13;;
1879;SDS011;49285;49.002;8.390;2024-01-16T03:09:21;10.97;;;6.10;;
1879;SDS011;49285;49.002;8.390;2024-01-16T03:11:47;8.60;;;6.13;;
1879;SDS011;49285;49.002;8.390;2024-01-16T03:14:13;9.57;;;6.03;;
1879;SDS011;49285;49.002;8.390;2024-01-16T03:16:39;13.53;;;6.37;;
1879;SDS011;49285;49.002;8.390;2024-01-16T03:19:06;10.67;;;6.50;;
1879;SDS011;49285;49.002;8.390;2024-01-16T03:21:31;10.50;;;5.90;;
1879;SDS011;49285;49.002;8.390;2024-01-16T03:23:57;11.60;;;6.40;;
1879;SDS011;49285;49.002;8.390;2024-01-16T03:26:22;11.90;;;5.73;;
1879;SDS011;49285;49.002;8.390;2024-01-16T03:28:48;17.97;;;6.93;;
1879;SDS011;49285;49.002;8.390;2024-01-16T03:31:14;9.83;;;7.17;;
1879;SDS011;49285;49.002;8.390;2024-01-16T03:33:39;11.23;;;5.90;;
1879;SDS011;49285;49.002;8.390;2024-01-16T03:36:07;11.87;;;6.63;;
1879;SDS011;49285;49.002;8.390;2024-01-16T03:38:34;8.53;;;5.97;;
1879;SDS011;49285;49.002;8.390;2024-01-16T03:41:03;9.00;;;5.70;;
1879;SDS011;49285;49.002;8.390;2024-01-16T03:43:29;10.20;;;5.60;;
1879;SDS011;49285;49.002;8.390;2024-01-16T03:45:57;7.93;;;5.57;;
1879;SDS011;49285;49.002;8.390;2024-01-16T03:48:23;10.40;;;6.03;;
1879;SDS011;49285;49.002;8.390;2024-01-16T03:50:49;9.70;;;5.77;;
1879;SDS011;49285;49.002;8.390;2024-01-16T03:53:14;12.20;;;6.50;;
1879;SDS011;49285;49.002;8.390;2024-01-16T03:55:40;9.70;;;6.27;;
1879;SDS011;49285;49.002;8.390;2024-01-16T03:58:05;15.30;;;6.47;;
1879;SDS011;49285;49.002;8.390;2024-01-16T04:00:31;8.87;;;6.27;;
1879;SDS011;49285;49.002;8.390;2024-01-16T04:02:57;16.40;;;6.30;;
1879;SDS011;49285;49.002;8.390;2024-01-16T04:05:22;8.87;;;6.20;;
1879;SDS011;49285;49.002;8.390;2024-01-16T04:07:48;11.97;;;6.63;;
1879;SDS011;49285;49.002;8.390;2024-01-16T04:10:13;9.93;;;5.83;;
1879;SDS011;49285;49.002;8.390;2024-01-16T04:12:39;10.97;;;5.70;;
1879;SDS011;49285;49.002;8.390;2024-01-16T04:15:05;10.60;;;5.47;;
1879;SDS011;49285;49.002;8.390;2024-01-16T04:17:31;9.00;;;5.73;;
1879;SDS011;49285;49.002;8.390;2024-01-16T04:19:57;10.50;;;5.70;;
1879;SDS011;49285;49.002;8.390;2024-01-16T04:22:23;11.13;;;6.93;;
1879;SDS011;49285;49.002;8.390;2024-01-16T04:24:48;7.80;;;5.83;;
1879;SDS011;49285;49.002;8.390;2024-01-16T04:27:14;11.90;;;5.13;;
1879;SDS011;49285;49.002;8.390;2024-01-16T04:29:40;11.80;;;6.70;;
1879;SDS011;49285;49.002;8.390;2024-01-16T04:32:05;12.87;;;6.20;;
1879;SDS011;49285;49.002;8.390;2024-01-16T04:34:31;10.37;;;5.77;;
1879;SDS011;49285;49.002;8.390;2024-01-16T04:36:57;10.17;;;5.20;;
1879;SDS011;49285;49.002;8.390;2024-01-16T04:39:22;13.77;;;6.07;;
1879;SDS011;49285;49.002;8.390;2024-01-16T04:41:49;12.03;;;6.60;;
1879;SDS011;49285;49.002;8.390;2024-01-16T04:44:14;9.37;;;6.10;;
1879;SDS011;49285;49.002;8.390;2024-01-16T04:46:40;10.63;;;6.30;;
1879;SDS011;49285;49.002;8.390;2024-01-16T04:49:06;8.90;;;5.57;;
1879;SDS011;49285;49.002;8.390;2024-01-16T04:51:31;10.80;;;7.20;;
1879;SDS011;49285;49.002;8.390;2024-01-16T04:53:57;11.23;;;6.23;;
1879;SDS011;49285;49.002;8.390;2024-01-16T04:56:22;8.87;;;5.73;;
1879;SDS011;49285;49.002;8.390;2024-01-16T04:58:48;8.50;;;6.00;;
1879;SDS011;49285;49.002;8.390;2024-01-16T05:01:14;10.43;;;6.20;;
1879;SDS011;49285;49.002;8.390;2024-01-16T05:03:39;8.60;;;6.33;;
1879;SDS011;49285;49.002;8.390;2024-01-16T05:06:05;14.00;;;6.53;;
1879;SDS011;49285;49.002;8.390;2024-01-16T05:08:38;10.83;;;6.33;;
1879;SDS011;49285;49.002;8.390;2024-01-16T05:11:04;11.30;;;6.70;;
1879;SDS011;49285;49.002;8.390;2024-01-16T05:13:29;11.80;;;6.60;;
1879;SDS011;49285;49.002;8.390;2024-01-16T05:15:55;13.50;;;6.50;;
1879;SDS011;49285;49.002;8.390;2024-01-16T05:18:21;11.90;;;7.50;;
1879;SDS011;49285;49.002;8.390;2024-01-16T05:20:46;9.97;;;5.93;;
1879;SDS011;49285;49.002;8.390;2024-01-16T05:23:12;12.63;;;6.50;;
1879;SDS011;49285;49.002;8.390;2024-01-16T05:25:37;13.50;;;7.00;;
1879;SDS011;49285;49.002;8.390;2024-01-16T05:28:03;11.80;;;7.30;;
1879;SDS011;49285;49.002;8.390;2024-01-16T05:30:29;11.00;;;6.83;;
1879;SDS011;49285;49.002;8.390;2024-01-16T05:32:54;11.93;;;7.30;;
1879;SDS011;49285;49.002;8.390;2024-01-16T05:35:20;15.03;;;6.93;;
1879;SDS011;49285;49.002;8.390;2024-01-16T05:37:46;10.17;;;6.73;;
1879;SDS011;49285;49.002;8.390;2024-01-16T05:40:12;10.90;;;7.40;;
1879;SDS011;49285;49.002;8.390;2024-01-16T05:42:38;13.23;;;7.20;;
1879;SDS011;49285;49.002;8.390;2024-01-16T05:45:04;11.17;;;5.63;;
1879;SDS011;49285;49.002;8.390;2024-01-16T05:47:30;10.37;;;6.63;;
1879;SDS011;49285;49.002;8.390;2024-01-16T05:49:55;10.40;;;6.30;;
1879;SDS011;49285;49.002;8.390;2024-01-16T05:52:22;12.73;;;6.97;;
1879;SDS011;49285;49.002;8.390;2024-01-16T05:54:48;8.57;;;6.30;;
1879;SDS011;49285;49.002;8.390;2024-01-16T05:57:13;8.60;;;5.90;;
1879;SDS011;49285;49.002;8.390;2024-01-16T05:59:39;8.70;;;6.37;;
1879;SDS011;49285;49.002;8.390;2024-01-16T06:02:04;14.70;;;7.97;;
1879;SDS011;49285;49.002;8.390;2024-01-16T06:04:30;11.30;;;6.70;;
1879;SDS011;49285;49.002;8.390;2024-01-16T06:06:56;13.70;;;7.37;;
1879;SDS011;49285;49.002;8.390;2024-01-16T06:09:21;12.07;;;7.10;;
1879;SDS011;49285;49.002;8.390;2024-01-16T06:11:47;10.90;;;7.10;;
1879;SDS011;49285;49.002;8.390;2024-01-16T06:14:13;18.63;;;7.67;;
1879;SDS011;49285;49.002;8.390;2024-01-16T06:16:38;10.60;;;6.50;;
1879;SDS011;49285;49.002;8.390;2024-01-16T06:19:04;9.90;;;6.17;;
1879;SDS011;49285;49.002;8.390;2024-01-16T06:21:31;11.20;;;6.47;;
1879;SDS011;49285;49.002;8.390;2024-01-16T06:23:56;10.67;;;6.83;;
1879;SDS011;49285;49.002;8.390;2024-01-16T06:26:22;12.47;;;6.17;;
1879;SDS011;49285;49.002;8.390;2024-01-16T06:28:47;13.60;;;7.40;;
1879;SDS011;49285;49.002;8.390;2024-01-16T06:31:13;17.10;;;7.40;;
1879;SDS011;49285;49.002;8.390;2024-01-16T06:33:39;9.63;;;6.23;;
1879;SDS011;49285;49.002;8.390;2024-01-16T06:36:04;14.20;;;7.13;;
1879;SDS011;49285;49.002;8.390;2024-01-16T06:38:31;14.10;;;6.50;;
1879;SDS011;49285;49.002;8.390;2024-01-16T06:40:56;9.93;;;6.63;;
1879;SDS011;49285;49.002;8.390;2024-01-16T06:43:23;14.10;;;7.80;;
1879;SDS011;49285;49.002;8.390;2024-01-16T06:45:48;10.03;;;6.90;;
1879;SDS011;49285;49.002;8.390;2024-01-16T06:48:14;11.77;;;7.80;;
1879;SDS011;49285;49.002;8.390;2024-01-16T06:50:40;10.13;;;6.70;;
1879;SDS011;49285;49.002;8.390;2024-01-16T06:53:06;11.17;;;6.80;;
1879;SDS011;49285;49.002;8.390;2024-01-16T06:55:32;14.70;;;7.07;;
1879;SDS011;49285;49.002;8.390;2024-01-16T06:57:57;15.03;;;7.60;;
1879;SDS011;49285;49.002;8.390;2024-01-16T07:00:23;12.80;;;7.30;;
1879;SDS011;49285;49.002;8.390;2024-01-16T07:02:51;13.23;;;7.10;;
1879;SDS011;49285;49.002;8.390;2024-01-16T07:05:17;16.07;;;6.73;;
1879;SDS011;49285;49.002;8.390;2024-01-16T07:07:43;17.10;;;7.43;;
1879;SDS011;49285;49.002;8.390;2024-01-16T07:10:08;10.37;;;6.57;;
1879;SDS011;49285;49.002;8.390;2024-01-16T07:12:38;12.77;;;7.40;;
1879;SDS011;49285;49.002;8.390;2024-01-16T07:15:05;11.57;;;6.83;;
1879;SDS011;49285;49.002;8.390;2024-01-16T07:17:31;12.63;;;7.20;;
1879;SDS011;49285;49.002;8.390;2024-01-16T07:19:56;13.00;;;7.10;;
1879;SDS011;49285;49.002;8.390;2024-01-16T07:22:23;15.30;;;7.67;;
1879;SDS011;49285;49.002;8.390;2024-01-16T07:24:49;9.13;;;6.90;;
1879;SDS011;49285;49.002;8.390;2024-01-16T07:27:14;11.77;;;6.50;;
1879;SDS011;49285;49.002;8.390;2024-01-16T07:29:40;11.60;;;6.20;;
1879;SDS011;49285;49.002;8.390;2024-01-16T07:32:06;13.77;;;6.80;;
1879;SDS011;49285;49.002;8.390;2024-01-16T07:34:32;14.03;;;7.67;;
1879;SDS011;49285;49.002;8.390;2024-01-16T07:36:58;16.00;;;8.33;;
1879;SDS011;49285;49.002;8.390;2024-01-16T07:39:23;13.00;;;7.50;;
1879;SDS011;49285;49.002;8.390;2024-01-16T07:41:49;11.50;;;7.33;;
1879;SDS011;49285;49.002;8.390;2024-01-16T07:44:14;12.57;;;7.90;;
1879;SDS011;49285;49.002;8.390;2024-01-16T07:46:40;9.07;;;6.33;;
1879;SDS011;49285;49.002;8.390;2024-01-16T07:49:05;10.77;;;6.80;;
1879;SDS011;49285;49.002;8.390;2024-01-16T07:51:31;14.60;;;7.27;;
1879;SDS011;49285;49.002;8.390;2024-01-16T07:54:06;10.07;;;6.03;;
1879;SDS011;49285;49.002;8.390;2024-01-16T07:56:33;16.10;;;9.43;;
1879;SDS011;49285;49.002;8.390;2024-01-16T07:59:00;15.33;;;8.27;;
1879;SDS011;49285;49.002;8.390;2024-01-16T08:01:26;12.83;;;7.43;;
1879;SDS011;49285;49.002;8.390;2024-01-16T08:03:53;15.37;;;7.30;;
1879;SDS011;49285;49.002;8.390;2024-01-16T08:06:19;9.80;;;6.30;;
1879;SDS011;49285;49.002;8.390;2024-01-16T08:08:45;8.93;;;6.37;;
1879;SDS011;49285;49.002;8.390;2024-01-16T08:11:11;14.33;;;7.73;;
1879;SDS011;49285;49.002;8.390;2024-01-16T08:13:37;12.80;;;7.43;;
1879;SDS011;49285;49.002;8.390;2024-01-16T08:16:03;13.60;;;7.60;;
1879;SDS011;49285;49.002;8.390;2024-01-16T08:18:29;14.20;;;7.50;;
1879;SDS011;49285;49.002;8.390;2024-01-16T08:20:56;12.97;;;7.80;;
1879;SDS011;49285;49.002;8.390;2024-01-16T08:23:22;10.37;;;6.30;;
1879;SDS011;49285;49.002;8.390;2024-01-16T08:25:47;15.07;;;7.97;;
1879;SDS011;49285;49.002;8.390;2024-01-16T08:28:13;13.23;;;8.50;;
1879;SDS011;49285;49.002;8.390;2024-01-16T08:30:40;10.87;;;7.53;;
1879;SDS011;49285;49.002;8.390;2024-01-16T08:33:05;14.70;;;9.30;;
1879;SDS011;49285;49.002;8.390;2024-01-16T08:35:32;12.07;;;8.07;;
1879;SDS011;49285;49.002;8.390;2024-01-16T08:37:58;11.40;;;7.80;;
1879;SDS011;49285;49.002;8.390;2024-01-16T08:40:23;14.10;;;7.90;;
1879;SDS011;49285;49.002;8.390;2024-01-16T08:42:49;12.17;;;7.47;;
1879;SDS011;49285;49.002;8.390;2024-01-16T08:45:19;11.23;;;8.67;;
1879;SDS011;49285;49.002;8.390;2024-01-16T08:47:45;13.50;;;8.20;;
1879;SDS011;49285;49.002;8.390;2024-01-16T08:50:11;13.90;;;8.50;;
1879;SDS011;49285;49.002;8.390;2024-01-16T08:52:37;13.10;;;7.93;;
1879;SDS011;49285;49.002;8.390;2024-01-16T08:55:02;14.27;;;8.70;;
1879;SDS011;49285;49.002;8.390;2024-01-16T08:57:29;10.80;;;8.00;;
1879;SDS011;49285;49.002;8.390;2024-01-16T08:59:54;15.77;;;9.07;;
1879;SDS011;49285;49.002;8.390;2024-01-16T09:02:20;13.43;;;8.50;;
1879;SDS011;49285;49.002;8.390;2024-01-16T09:04:46;14.40;;;8.80;;
1879;SDS011;49285;49.002;8.390;2024-01-16T09:07:15;14.97;;;8.90;;
1879;SDS011;49285;49.002;8.390;2024-01-16T09:09:44;17.03;;;8.70;;
1879;SDS011;49285;49.002;8.390;2024-01-16T09:12:09;11.00;;;7.53;;
1879;SDS011;49285;49.002;8.390;2024-01-16T09:14:35;18.13;;;9.27;;
1879;SDS011;49285;49.002;8.390;2024-01-16T09:17:01;13.13;;;8.00;;
1879;SDS011;49285;49.002;8.390;2024-01-16T09:19:28;10.63;;;6.20;;
1879;SDS011;49285;49.002;8.390;2024-01-16T09:21:54;11.90;;;6.83;;
1879;SDS011;49285;49.002;8.390;2024-01-16T09:24:20;14.50;;;8.00;;
1879;SDS011;49285;49.002;8.390;2024-01-16T09:26:46;13.70;;;7.63;;
1879;SDS011;49285;49.002;8.390;2024-01-16T09:29:11;12.43;;;7.93;;
1879;SDS011;49285;49.002;8.390;2024-01-16T09:31:39;11.37;;;7.10;;
1879;SDS011;49285;49.002;8.390;2024-01-16T09:34:05;13.90;;;7.30;;
1879;SDS011;49285;49.002;8.390;2024-01-16T09:36:31;9.27;;;7.70;;
1879;SDS011;49285;49.002;8.390;2024-01-16T09:38:57;11.37;;;7.37;;
1879;SDS011;49285;49.002;8.390;2024-01-16T09:41:23;8.90;;;6.10;;
1879;SDS011;49285;49.002;8.390;2024-01-16T09:43:49;9.87;;;6.93;;
1879;SDS011;49285;49.002;8.390;2024-01-16T09:46:16;9.53;;;6.20;;
1879;SDS011;49285;49.002;8.390;2024-01-16T09:48:44;10.30;;;6.33;;
1879;SDS011;49285;49.002;8.390;2024-01-16T09:51:12;9.10;;;6.37;;
1879;SDS011;49285;49.002;8.390;2024-01-16T09:53:41;10.17;;;6.73;;
1879;SDS011;49285;49.002;8.390;2024-01-16T09:56:09;13.23;;;8.40;;
1879;SDS011;49285;49.002;8.390;2024-01-16T09:58:41;9.23;;;6.60;;
1879;SDS011;49285;49.002;8.390;2024-01-16T10:01:08;13.57;;;6.73;;
1879;SDS011;49285;49.002;8.390;2024-01-16T10:03:35;10.80;;;6.67;;
1879;SDS011;49285;49.002;8.390;2024-01-16T10:06:03;11.97;;;8.10;;
1879;SDS011;49285;49.002;8.390;2024-01-16T10:08:31;13.00;;;8.00;;
1879;SDS011;49285;49.002;8.390;2024-01-16T10:10:57;13.33;;;7.63;;
1879;SDS011;49285;49.002;8.390;2024-01-16T10:13:23;12.67;;;6.97;;
1879;SDS011;49285;49.002;8.390;2024-01-16T10:15:52;13.00;;;7.87;;
1879;SDS011;49285;49.002;8.390;2024-01-16T10:18:23;12.60;;;6.90;;
1879;SDS011;49285;49.002;8.390;2024-01-16T10:20:50;9.17;;;6.03;;
1879;SDS011;49285;49.002;8.390;2024-01-16T10:23:27;12.90;;;7.73;;
1879;SDS011;49285;49.002;8.390;2024-01-16T10:26:07;11.57;;;7.17;;
1879;SDS011;49285;49.002;8.390;2024-01-16T10:28:37;12.47;;;6.80;;
1879;SDS011;49285;49.002;8.390;2024-01-16T10:31:04;13.60;;;6.87;;
1879;SDS011;49285;49.002;8.390;2024-01-16T10:33:31;13.20;;;7.67;;
1879;SDS011;49285;49.002;8.390;2024-01-16T10:36:12;13.43;;;7.67;;
1879;SDS011;49285;49.002;8.390;2024-01-16T10:38:41;11.40;;;6.90;;
1879;SDS011;49285;49.002;8.390;2024-01-16T10:41:12;11.73;;;7.43;;
1879;SDS011;49285;49.002;8.390;2024-01-16T10:43:39;10.77;;;7.07;;
1879;SDS011;49285;49.002;8.390;2024-01-16T10:48:39;10.50;;;6.47;;
1879;SDS011;49285;49.002;8.390;2024-01-16T10:51:24;10.43;;;6.23;;
1879;SDS011;49285;49.002;8.390;2024-01-16T10:53:52;10.20;;;6.57;;
1879;SDS011;49285;49.002;8.390;2024-01-16T10:56:24;11.33;;;6.87;;
1879;SDS011;49285;49.002;8.390;2024-01-16T10:58:55;15.60;;;7.10;;
1879;SDS011;49285;49.002;8.390;2024-01-16T11:01:43;9.03;;;6.57;;
1879;SDS011;49285;49.002;8.390;2024-01-16T11:04:13;15.43;;;6.33;;
1879;SDS011;49285;49.002;8.390;2024-01-16T11:06:39;9.33;;;5.43;;
1879;SDS011;49285;49.002;8.390;2024-01-16T11:09:06;10.80;;;6.20;;
1879;SDS011;49285;49.002;8.390;2024-01-16T11:11:33;10.00;;;6.30;;
1879;SDS011;49285;49.002;8.390;2024-01-16T11:14:00;9.30;;;6.70;;
1879;SDS011;49285;49.002;8.390;2024-01-16T11:16:28;9.97;;;5.97;;
1879;SDS011;49285;49.002;8.390;2024-01-16T11:18:56;10.60;;;6.73;;
1879;SDS011;49285;49.002;8.390;2024-01-16T11:21:21;9.80;;;6.50;;
1879;SDS011;49285;49.002;8.390;2024-01-16T11:23:48;15.40;;;6.63;;
1879;SDS011;49285;49.002;8.390;2024-01-16T11:26:24;7.73;;;5.63;;
1879;SDS011;49285;49.002;8.390;2024-01-16T11:28:57;11.57;;;6.50;;
1879;SDS011;49285;49.002;8.390;2024-01-16T11:31:27;8.70;;;5.77;;
1879;SDS011;49285;49.002;8.390;2024-01-16T11:33:53;8.70;;;5.13;;
1879;SDS011;49285;49.002;8.390;2024-01-16T11:39:23;11.10;;;5.70;;
1879;SDS011;49285;49.002;8.390;2024-01-16T11:47:02;11.40;;;6.47;;
1879;SDS011;49285;49.002;8.390;2024-01-16T11:49:29;9.40;;;5.63;;
1879;SDS011;49285;49.002;8.390;2024-01-16T11:51:56;10.07;;;6.17;;
1879;SDS011;49285;49.002;8.390;2024-01-16T11:54:22;7.50;;;5.60;;
1879;SDS011;49285;49.002;8.390;2024-01-16T12:02:24;17.93;;;6.00;;
1879;SDS011;49285;49.002;8.390;2024-01-16T12:05:06;12.27;;;5.83;;
1879;SDS011;49285;49.002;8.390;2024-01-16T12:10:17;10.37;;;6.67;;
1879;SDS011;49285;49.002;8.390;2024-01-16T12:12:45;10.13;;;6.43;;
1879;SDS011;49285;49.002;8.390;2024-01-16T12:15:18;8.93;;;5.50;;
1879;SDS011;49285;49.002;8.390;2024-01-16T12:17:54;10.17;;;5.53;;
1879;SDS011;49285;49.002;8.390;2024-01-16T12:20:21;7.13;;;5.10;;
1879;SDS011;49285;49.002;8.390;2024-01-16T12:22:58;9.93;;;6.47;;
1879;SDS011;49285;49.002;8.390;2024-01-16T12:25:24;10.93;;;6.50;;
1879;SDS011;49285;49.002;8.390;2024-01-16T12:27:58;10.60;;;6.70;;
1879;SDS011;49285;49.002;8.390;2024-01-16T12:30:34;10.80;;;6.93;;
1879;SDS011;49285;49.002;8.390;2024-01-16T12:33:04;10.00;;;6.07;;
1879;SDS011;49285;49.002;8.390;2024-01-16T12:38:10;12.00;;;6.63;;
1879;SDS011;49285;49.002;8.390;2024-01-16T12:40:37;9.33;;;6.50;;
1879;SDS011;49285;49.002;8.390;2024-01-16T12:43:07;10.83;;;6.13;;
1879;SDS011;49285;49.002;8.390;2024-01-16T12:45:36;7.70;;;5.87;;
1879;SDS011;49285;49.002;8.390;2024-01-16T12:48:02;10.07;;;6.47;;
1879;SDS011;49285;49.002;8.390;2024-01-16T12:50:28;8.03;;;5.40;;
1879;SDS011;49285;49.002;8.390;2024-01-16T12:53:06;5.87;;;4.87;;
1879;SDS011;49285;49.002;8.390;2024-01-16T12:55:34;11.07;;;5.00;;
1879;SDS011;49285;49.002;8.390;2024-01-16T13:00:46;9.20;;;6.00;;
1879;SDS011;49285;49.002;8.390;2024-01-16T13:03:16;7.00;;;5.53;;
1879;SDS011;49285;49.002;8.390;2024-01-16T13:05:43;8.37;;;5.80;;
1879;SDS011;49285;49.002;8.390;2024-01-16T13:08:16;9.30;;;5.07;;
1879;SDS011;49285;49.002;8.390;2024-01-16T13:10:44;7.20;;;4.30;;
1879;SDS011;49285;49.002;8.390;2024-01-16T13:15:38;9.37;;;5.20;;
1879;SDS011;49285;49.002;8.390;2024-01-16T13:18:03;6.70;;;4.63;;
1879;SDS011;49285;49.002;8.390;2024-01-16T13:20:29;11.00;;;5.10;;
1879;SDS011;49285;49.002;8.390;2024-01-16T13:22:55;7.23;;;4.17;;
1879;SDS011;49285;49.002;8.390;2024-01-16T13:25:21;7.27;;;4.57;;
1879;SDS011;49285;49.002;8.390;2024-01-16T13:27:46;8.33;;;4.57;;
1879;SDS011;49285;49.002;8.390;2024-01-16T13:30:12;8.20;;;5.80;;
1879;SDS011;49285;49.002;8.390;2024-01-16T13:32:39;8.33;;;4.67;;
1879;SDS011;49285;49.002;8.390;2024-01-16T13:35:05;5.23;;;4.13;;
1879;SDS011;49285;49.002;8.390;2024-01-16T13:37:34;11.93;;;4.53;;
1879;SDS011;49285;49.002;8.390;2024-01-16T13:40:03;5.73;;;4.50;;
1879;SDS011;49285;49.002;8.390;2024-01-16T13:42:33;9.07;;;4.87;;
1879;SDS011;49285;49.002;8.390;2024-01-16T13:45:00;8.53;;;5.30;;
1879;SDS011;49285;49.002;8.390;2024-01-16T13:47:25;8.30;;;6.00;;
1879;SDS011;49285;49.002;8.390;2024-01-16T13:49:51;9.50;;;4.33;;
1879;SDS011;49285;49.002;8.390;2024-01-16T13:52:17;7.37;;;4.40;;
1879;SDS011;49285;49.002;8.390;2024-01-16T13:54:43;6.20;;;4.10;;
1879;SDS011;49285;49.002;8.390;2024-01-16T13:57:11;5.77;;;4.40;;
1879;SDS011;49285;49.002;8.390;2024-01-16T14:02:41;10.43;;;7.23;;
1879;SDS011;49285;49.002;8.390;2024-01-16T14:05:08;7.43;;;4.90;;
1879;SDS011;49285;49.002;8.390;2024-01-16T14:07:36;7.20;;;4.33;;
1879;SDS011;49285;49.002;8.390;2024-01-16T14:10:07;7.57;;;4.67;;
1879;SDS011;49285;49.002;8.390;2024-01-16T14:12:43;10.60;;;4.83;;
1879;SDS011;49285;49.002;8.390;2024-01-16T14:15:10;8.73;;;4.47;;
1879;SDS011;49285;49.002;8.390;2024-01-16T14:17:52;8.63;;;4.60;;
1879;SDS011;49285;49.002;8.390;2024-01-16T14:20:20;5.70;;;3.03;;
1879;SDS011;49285;49.002;8.390;2024-01-16T14:22:48;7.63;;;4.57;;
1879;SDS011;49285;49.002;8.390;2024-01-16T14:25:17;6.10;;;3.40;;
1879;SDS011;49285;49.002;8.390;2024-01-16T14:27:44;9.03;;;4.13;;
1879;SDS011;49285;49.002;8.390;2024-01-16T14:30:20;5.50;;;4.23;;
1879;SDS011;49285;49.002;8.390;2024-01-16T14:32:45;7.73;;;5.87;;
1879;SDS011;49285;49.002;8.390;2024-01-16T14:35:12;7.80;;;5.30;;
1879;SDS011;49285;49.002;8.390;2024-01-16T14:37:39;10.17;;;5.07;;
1879;SDS011;49285;49.002;8.390;2024-01-16T14:40:06;6.77;;;4.40;;
1879;SDS011;49285;49.002;8.390;2024-01-16T14:42:37;9.03;;;4.27;;
1879;SDS011;49285;49.002;8.390;2024-01-16T14:45:07;6.80;;;3.27;;
1879;SDS011;49285;49.002;8.390;2024-01-16T14:47:36;7.27;;;3.63;;
1879;SDS011;49285;49.002;8.390;2024-01-16T14:50:02;8.63;;;3.20;;
1879;SDS011;49285;49.002;8.390;2024-01-16T14:52:29;6.53;;;3.10;;
1879;SDS011;49285;49.002;8.390;2024-01-16T14:54:57;6.50;;;3.60;;
1879;SDS011;49285;49.002;8.390;2024-01-16T14:57:24;6.27;;;3.47;;
1879;SDS011;49285;49.002;8.390;2024-01-16T14:59:50;5.67;;;2.80;;
1879;SDS011;49285;49.002;8.390;2024-01-16T15:02:16;8.07;;;3.30;;
1879;SDS011;49285;49.002;8.390;2024-01-16T15:04:42;9.20;;;3.37;;
1879;SDS011;49285;49.002;8.390;2024-01-16T15:07:10;4.63;;;4.13;;
1879;SDS011;49285;49.002;8.390;2024-01-16T15:09:36;6.80;;;4.20;;
1879;SDS011;49285;49.002;8.390;2024-01-16T15:12:05;10.03;;;4.47;;
1879;SDS011;49285;49.002;8.390;2024-01-16T15:14:34;6.50;;;4.00;;
1879;SDS011;49285;49.002;8.390;2024-01-16T15:17:01;5.00;;;4.03;;
1879;SDS011;49285;49.002;8.390;2024-01-16T15:19:27;6.90;;;4.40;;
1879;SDS011;49285;49.002;8.390;2024-01-16T15:21:54;7.13;;;4.27;;